createdAt,value
2023-02-10T00:01:14.014Z,29.70
2023-02-10T00:03:40.805Z,30.15
2023-02-10T00:06:08.327Z,32.45
2023-02-10T00:08:35.208Z,35.15
2023-02-10T00:11:04.570Z,37.05
2023-02-10T00:13:31.632Z,38.17
2023-02-10T00:15:59.644Z,28.88
2023-02-10T00:18:27.158Z,31.77
2023-02-10T00:20:53.867Z,39.45
2023-02-10T00:23:20.430Z,27.17
2023-02-10T00:25:47.313Z,33.60
2023-02-10T00:30:40.463Z,25.48
2023-02-10T00:33:06.945Z,30.67
2023-02-10T00:35:34.976Z,34.83
2023-02-10T00:38:01.666Z,35.30
2023-02-10T00:40:28.158Z,36.83
2023-02-10T00:42:54.778Z,41.38
2023-02-10T00:45:22.288Z,38.63
2023-02-10T00:47:50.141Z,34.00
2023-02-10T00:50:16.667Z,30.88
2023-02-10T00:52:43.157Z,32.33
2023-02-10T00:55:09.855Z,31.70
2023-02-10T00:57:36.371Z,36.00
2023-02-10T01:00:03.479Z,31.38
2023-02-10T01:04:56.497Z,28.27
2023-02-10T01:09:50.126Z,28.27
2023-02-10T01:14:44.057Z,35.63
2023-02-10T01:17:10.582Z,36.33
2023-02-10T01:19:37.092Z,37.60
2023-02-10T01:22:03.657Z,31.05
2023-02-10T01:24:31.785Z,26.35
2023-02-10T01:26:58.502Z,33.20
2023-02-10T01:29:25.248Z,36.42
2023-02-10T01:31:51.835Z,31.08
2023-02-10T01:34:18.513Z,29.95
2023-02-10T01:36:45.114Z,30.48
2023-02-10T01:39:11.556Z,32.70
2023-02-10T01:41:38.062Z,29.00
2023-02-10T01:44:27.667Z,32.65
2023-02-10T01:46:55.678Z,26.73
2023-02-10T01:49:26.689Z,28.52
2023-02-10T01:52:00.115Z,29.63
2023-02-10T01:54:42.010Z,25.60
2023-02-10T01:57:09.022Z,29.75
2023-02-10T01:59:39.810Z,29.90
2023-02-10T02:02:10.303Z,23.38
2023-02-10T02:04:42.068Z,27.35
2023-02-10T02:07:08.995Z,31.92
2023-02-10T02:09:35.910Z,27.25
2023-02-10T02:12:21.257Z,28.00
2023-02-10T02:15:10.773Z,25.67
2023-02-10T02:17:51.706Z,25.67
2023-02-10T02:20:42.489Z,30.73
2023-02-10T02:23:24.505Z,21.98
2023-02-10T02:26:17.798Z,30.27
2023-02-10T02:29:04.045Z,25.30
2023-02-10T02:32:00.893Z,27.88
2023-02-10T02:34:51.556Z,26.55
2023-02-10T02:37:42.984Z,25.25
2023-02-10T02:40:12.846Z,25.08
2023-02-10T02:42:39.423Z,30.60
2023-02-10T02:45:19.550Z,26.20
2023-02-10T02:47:46.017Z,29.70
2023-02-10T02:50:23.581Z,27.92
2023-02-10T02:53:15.124Z,23.80
2023-02-10T02:56:01.565Z,25.75
2023-02-10T02:59:01.214Z,46.88
2023-02-10T03:01:47.444Z,25.33
2023-02-10T03:04:16.585Z,28.80
2023-02-10T03:06:43.172Z,26.65
2023-02-10T03:09:10.449Z,22.48
2023-02-10T03:11:37.164Z,28.70
2023-02-10T03:14:05.377Z,28.90
2023-02-10T03:16:31.882Z,28.90
2023-02-10T03:18:58.366Z,34.60
2023-02-10T03:21:26.514Z,28.27
2023-02-10T03:23:53.076Z,30.17
2023-02-10T03:26:19.995Z,29.40
2023-02-10T03:28:47.231Z,21.05
2023-02-10T03:31:13.878Z,30.10
2023-02-10T03:33:40.465Z,29.52
2023-02-10T03:36:07.074Z,28.10
2023-02-10T03:38:33.746Z,25.48
2023-02-10T03:41:00.258Z,25.85
2023-02-10T03:43:26.822Z,26.20
2023-02-10T03:45:53.516Z,20.08
2023-02-10T03:48:20.208Z,35.58
2023-02-10T03:50:48.541Z,23.17
2023-02-10T03:53:15.289Z,28.02
2023-02-10T03:55:41.814Z,30.35
2023-02-10T03:58:08.291Z,22.65
2023-02-10T04:00:34.819Z,26.08
2023-02-10T04:03:01.398Z,25.85
2023-02-10T04:05:28.136Z,30.20
2023-02-10T04:07:54.713Z,31.23
2023-02-10T04:10:21.786Z,23.88
2023-02-10T04:15:16.201Z,25.20
2023-02-10T04:17:42.940Z,29.90
2023-02-10T04:20:09.904Z,25.45
2023-02-10T04:25:03.150Z,22.30
2023-02-10T04:27:29.679Z,19.15
2023-02-10T04:29:56.482Z,25.80
2023-02-10T04:32:23.366Z,29.05
2023-02-10T04:34:50.027Z,28.67
2023-02-10T04:37:17.162Z,24.08
2023-02-10T04:39:43.710Z,28.48
2023-02-10T04:42:10.445Z,27.20
2023-02-10T04:44:37.443Z,22.35
2023-02-10T04:49:32.731Z,28.77
2023-02-10T04:51:59.359Z,31.65
2023-02-10T04:54:25.903Z,25.25
2023-02-10T04:56:52.470Z,27.70
2023-02-10T04:59:19.045Z,31.60
2023-02-10T05:01:45.624Z,18.92
2023-02-10T05:04:12.106Z,26.70
2023-02-10T05:06:38.661Z,26.13
2023-02-10T05:09:05.197Z,25.23
2023-02-10T05:11:31.669Z,32.17
2023-02-10T05:13:58.213Z,26.63
2023-02-10T05:16:24.954Z,25.90
2023-02-10T05:18:51.792Z,27.77
2023-02-10T05:21:18.349Z,34.53
2023-02-10T05:23:44.956Z,33.65
2023-02-10T05:26:11.419Z,29.15
2023-02-10T05:28:37.947Z,27.92
2023-02-10T05:31:07.550Z,31.20
2023-02-10T05:33:35.420Z,27.30
2023-02-10T05:36:02.880Z,32.78
2023-02-10T05:38:29.442Z,29.38
2023-02-10T05:40:55.920Z,23.83
2023-02-10T05:43:22.618Z,21.85
2023-02-10T05:45:49.613Z,25.25
2023-02-10T05:48:16.368Z,35.30
2023-02-10T05:50:43.066Z,31.52
2023-02-10T05:53:14.255Z,31.58
2023-02-10T05:55:40.904Z,31.52
2023-02-10T05:58:07.631Z,27.10
2023-02-10T06:00:34.300Z,34.47
2023-02-10T06:03:00.798Z,27.08
2023-02-10T06:05:27.396Z,34.78
2023-02-10T06:07:55.743Z,43.75
2023-02-10T06:10:22.958Z,39.17
2023-02-10T06:12:50.408Z,25.05
2023-02-10T06:15:17.204Z,35.28
2023-02-10T06:17:44.319Z,31.05
2023-02-10T06:20:11.230Z,23.90
2023-02-10T06:22:37.679Z,32.58
2023-02-10T06:25:04.639Z,33.42
2023-02-10T06:29:57.707Z,29.13
2023-02-10T06:32:26.575Z,34.78
2023-02-10T06:34:53.289Z,40.90
2023-02-10T06:37:19.931Z,35.75
2023-02-10T06:39:46.543Z,28.33
2023-02-10T06:42:12.984Z,25.63
2023-02-10T06:44:39.603Z,36.17
2023-02-10T06:47:06.088Z,31.63
2023-02-10T06:49:35.239Z,33.88
2023-02-10T06:52:12.101Z,34.72
2023-02-10T06:54:43.641Z,32.70
2023-02-10T06:57:10.289Z,33.17
2023-02-10T06:59:36.843Z,27.65
2023-02-10T07:02:03.411Z,29.33
2023-02-10T07:04:31.513Z,29.42
2023-02-10T07:06:58.692Z,35.85
2023-02-10T07:09:25.529Z,34.90
2023-02-10T07:11:52.095Z,31.00
2023-02-10T07:14:18.690Z,28.00
2023-02-10T07:16:45.352Z,38.35
2023-02-10T07:19:14.144Z,28.15
2023-02-10T07:21:40.695Z,42.25
2023-02-10T07:24:10.330Z,28.95
2023-02-10T07:26:39.240Z,35.42
2023-02-10T07:29:05.746Z,27.27
2023-02-10T07:31:36.454Z,29.50
2023-02-10T07:34:03.681Z,32.83
2023-02-10T07:36:30.143Z,38.33
2023-02-10T07:38:56.716Z,26.02
2023-02-10T07:41:23.276Z,32.75
2023-02-10T07:43:50.036Z,26.90
2023-02-10T07:46:18.711Z,25.88
2023-02-10T07:48:45.320Z,32.67
2023-02-10T07:51:11.905Z,25.67
2023-02-10T07:53:38.685Z,23.60
2023-02-10T07:56:06.251Z,26.45
2023-02-10T07:58:32.841Z,26.15
2023-02-10T08:00:59.634Z,26.58
2023-02-10T08:03:26.466Z,31.15
2023-02-10T08:05:53.377Z,20.88
2023-02-10T08:08:19.966Z,26.95
2023-02-10T08:10:46.615Z,29.05
2023-02-10T08:13:13.409Z,25.55
2023-02-10T08:15:40.287Z,30.52
2023-02-10T08:18:06.868Z,35.72
2023-02-10T08:20:33.523Z,26.25
2023-02-10T08:23:00.573Z,36.72
2023-02-10T08:27:53.718Z,32.63
2023-02-10T08:30:20.480Z,24.48
2023-02-10T08:32:49.643Z,26.38
2023-02-10T08:35:16.625Z,20.75
2023-02-10T08:37:43.365Z,32.15
2023-02-10T08:40:10.403Z,30.35
2023-02-10T08:45:03.953Z,31.85
2023-02-10T08:47:30.596Z,27.77
2023-02-10T08:49:57.203Z,31.95
2023-02-10T08:52:24.532Z,26.58
2023-02-10T08:54:51.298Z,28.17
2023-02-10T08:57:18.178Z,30.30
2023-02-10T08:59:44.762Z,31.23
2023-02-10T09:02:13.173Z,27.67
2023-02-10T09:04:40.794Z,34.00
2023-02-10T09:07:08.076Z,27.63
2023-02-10T09:09:40.157Z,28.45
2023-02-10T09:12:08.091Z,25.27
2023-02-10T09:14:34.706Z,29.63
2023-02-10T09:17:01.244Z,25.45
2023-02-10T09:19:29.060Z,22.05
2023-02-10T09:21:57.266Z,32.00
2023-02-10T09:24:24.737Z,43.22
2023-02-10T09:26:51.285Z,26.95
2023-02-10T09:29:17.828Z,32.58
2023-02-10T09:31:44.643Z,31.83
2023-02-10T09:34:11.449Z,27.23
2023-02-10T09:36:38.239Z,27.75
2023-02-10T09:39:05.155Z,26.98
2023-02-10T09:44:11.685Z,30.80
2023-02-10T09:46:46.845Z,32.10
2023-02-10T09:49:47.485Z,28.25
2023-02-10T09:52:32.879Z,22.83
2023-02-10T09:55:00.550Z,35.50
2023-02-10T09:57:42.432Z,23.35
2023-02-10T10:00:25.847Z,26.30
2023-02-10T10:02:55.627Z,28.42
2023-02-10T10:05:48.840Z,27.25
2023-02-10T10:08:23.715Z,25.40
2023-02-10T10:10:51.917Z,28.90
2023-02-10T10:13:28.005Z,33.70
2023-02-10T10:16:26.434Z,35.45
2023-02-10T10:19:18.628Z,25.83
2023-02-10T10:22:16.840Z,24.17
2023-02-10T10:24:53.845Z,20.25
2023-02-10T10:27:39.364Z,31.33
2023-02-10T10:30:17.702Z,30.73
2023-02-10T10:32:53.269Z,28.38
2023-02-10T10:35:39.618Z,36.55
2023-02-10T10:38:24.360Z,28.80
2023-02-10T10:41:00.464Z,23.88
2023-02-10T10:43:30.507Z,32.13
2023-02-10T10:46:04.613Z,32.28
2023-02-10T10:48:32.319Z,24.35
2023-02-10T10:51:03.205Z,34.35
2023-02-10T10:53:50.598Z,23.33
2023-02-10T10:56:48.713Z,26.25
2023-02-10T10:59:18.050Z,21.85
2023-02-10T11:01:48.834Z,28.83
2023-02-10T11:04:21.591Z,26.83
2023-02-10T11:06:50.957Z,19.58
2023-02-10T11:09:35.466Z,23.98
2023-02-10T11:12:04.934Z,22.92
2023-02-10T11:14:41.840Z,23.17
2023-02-10T11:17:21.551Z,19.83
2023-02-10T11:20:01.074Z,30.77
2023-02-10T11:22:28.559Z,30.48
2023-02-10T11:24:57.806Z,31.02
2023-02-10T11:27:24.522Z,27.05
2023-02-10T11:29:54.504Z,29.17
2023-02-10T11:32:33.791Z,18.98
2023-02-10T11:35:03.545Z,26.15
2023-02-10T11:37:57.166Z,23.77
2023-02-10T11:40:32.690Z,23.33
2023-02-10T11:43:04.198Z,27.38
2023-02-10T11:45:33.201Z,21.70
2023-02-10T11:48:02.382Z,19.65
2023-02-10T11:50:32.614Z,20.20
2023-02-10T11:52:59.215Z,31.48
2023-02-10T11:55:51.182Z,24.08
2023-02-10T11:59:02.586Z,25.23
2023-02-10T12:01:38.166Z,19.58
2023-02-10T12:04:41.737Z,24.08
2023-02-10T12:07:49.939Z,22.25
2023-02-10T12:10:26.771Z,19.05
2023-02-10T12:15:47.092Z,17.38
2023-02-10T12:18:17.244Z,22.77
2023-02-10T12:21:15.186Z,26.52
2023-02-10T12:23:59.933Z,24.98
2023-02-10T12:26:42.181Z,24.30
2023-02-10T12:29:22.076Z,25.75
2023-02-10T12:32:00.656Z,23.35
2023-02-10T12:34:34.593Z,29.15
2023-02-10T12:37:12.906Z,34.25
2023-02-10T12:40:21.100Z,27.92
2023-02-10T12:42:56.386Z,20.70
2023-02-10T12:45:44.181Z,21.70
2023-02-10T12:48:26.171Z,22.58
2023-02-10T12:50:58.589Z,24.10
2023-02-10T12:53:29.400Z,26.35
2023-02-10T12:56:18.448Z,17.40
2023-02-10T12:58:54.102Z,20.70
2023-02-10T13:01:31.203Z,24.15
2023-02-10T13:04:07.716Z,20.20
2023-02-10T13:06:42.592Z,20.48
2023-02-10T13:09:27.752Z,23.92
2023-02-10T13:12:03.170Z,15.82
2023-02-10T13:14:32.391Z,15.52
2023-02-10T13:16:59.642Z,19.83
2023-02-10T13:19:32.235Z,19.35
2023-02-10T13:22:06.088Z,29.15
2023-02-10T13:24:45.717Z,20.60
2023-02-10T13:27:24.600Z,20.65
2023-02-10T13:30:18.679Z,16.92
2023-02-10T13:33:12.666Z,21.52
2023-02-10T13:35:42.698Z,19.05
2023-02-10T13:38:15.138Z,14.98
2023-02-10T13:40:51.935Z,13.02
2023-02-10T13:45:53.573Z,26.98
2023-02-10T13:48:30.782Z,16.98
2023-02-10T13:51:04.297Z,15.25
2023-02-10T13:53:36.844Z,23.25
2023-02-10T13:56:28.611Z,13.20
2023-02-10T13:59:05.812Z,12.15
2023-02-10T14:01:50.108Z,15.30
2023-02-10T14:04:21.088Z,17.63
2023-02-10T14:06:50.578Z,12.13
2023-02-10T14:09:20.105Z,12.23
2023-02-10T14:11:52.560Z,12.18
2023-02-10T14:14:38.648Z,11.45
2023-02-10T14:17:22.454Z,11.60
2023-02-10T14:19:52.381Z,13.55
2023-02-10T14:22:32.258Z,12.45
2023-02-10T14:25:14.576Z,13.00
2023-02-10T14:27:41.734Z,13.50
2023-02-10T14:30:25.292Z,14.13
2023-02-10T14:32:53.078Z,12.63
2023-02-10T14:35:30.567Z,15.73
2023-02-10T14:37:59.827Z,9.50
2023-02-10T14:40:30.088Z,9.73
2023-02-10T14:43:00.573Z,8.77
2023-02-10T14:45:28.670Z,8.13
2023-02-10T14:47:57.933Z,12.13
2023-02-10T14:50:35.849Z,14.07
2023-02-10T14:53:04.369Z,10.77
2023-02-10T14:55:33.454Z,11.95
2023-02-10T14:58:07.191Z,11.18
2023-02-10T15:00:34.962Z,14.18
2023-02-10T15:03:03.686Z,11.50
2023-02-10T15:05:46.556Z,9.98
2023-02-10T15:08:20.844Z,15.05
2023-02-10T15:10:50.849Z,8.70
2023-02-10T15:13:24.696Z,10.73
2023-02-10T15:15:52.692Z,13.18
2023-02-10T15:18:32.240Z,11.75
2023-02-10T15:21:02.350Z,13.55
2023-02-10T15:23:33.666Z,14.80
2023-02-10T15:26:06.266Z,12.38
2023-02-10T15:28:33.225Z,14.00
2023-02-10T15:31:08.098Z,20.10
2023-02-10T15:33:40.875Z,19.73
2023-02-10T15:36:21.055Z,11.27
2023-02-10T15:38:56.575Z,13.00
2023-02-10T15:41:44.656Z,17.63
2023-02-10T15:44:20.544Z,14.57
2023-02-10T15:46:52.247Z,19.85
2023-02-10T15:49:20.935Z,16.33
2023-02-10T15:51:53.240Z,12.75
2023-02-10T15:54:24.743Z,17.92
2023-02-10T15:56:58.692Z,15.00
2023-02-10T15:59:31.032Z,17.10
2023-02-10T16:01:59.730Z,15.55
2023-02-10T16:04:29.414Z,20.70
2023-02-10T16:07:00.037Z,19.63
2023-02-10T16:09:27.265Z,20.17
2023-02-10T16:11:54.468Z,17.95
2023-02-10T16:14:21.175Z,18.95
2023-02-10T16:16:55.518Z,18.90
2023-02-10T16:19:24.202Z,19.45
2023-02-10T16:21:56.483Z,22.42
2023-02-10T16:24:26.242Z,16.73
2023-02-10T16:26:53.115Z,18.67
2023-02-10T16:29:23.410Z,22.15
2023-02-10T16:31:50.332Z,16.75
2023-02-10T16:36:45.608Z,14.25
2023-02-10T16:39:15.746Z,18.80
2023-02-10T16:41:42.547Z,17.08
2023-02-10T16:44:09.132Z,15.88
2023-02-10T16:46:35.775Z,19.15
2023-02-10T16:49:02.347Z,18.30
2023-02-10T16:51:29.231Z,13.65
2023-02-10T16:53:56.370Z,15.40
2023-02-10T16:58:51.906Z,13.20
2023-02-10T17:01:18.670Z,15.73
2023-02-10T17:03:45.457Z,14.00
2023-02-10T17:06:19.818Z,15.38
2023-02-10T17:08:46.716Z,15.90
2023-02-10T17:11:16.707Z,17.60
2023-02-10T17:13:43.497Z,15.10
2023-02-10T17:16:31.084Z,16.17
2023-02-10T17:18:57.942Z,16.88
2023-02-10T17:21:24.696Z,18.40
2023-02-10T17:23:51.323Z,18.10
2023-02-10T17:26:17.924Z,16.15
2023-02-10T17:28:44.702Z,19.70
2023-02-10T17:31:17.028Z,16.05
2023-02-10T17:33:49.407Z,20.55
2023-02-10T17:36:21.187Z,20.52
2023-02-10T17:38:51.211Z,19.17
2023-02-10T17:41:26.023Z,16.45
2023-02-10T17:43:55.647Z,20.10
2023-02-10T17:46:23.043Z,15.60
2023-02-10T17:48:49.918Z,14.10
2023-02-10T17:51:20.267Z,18.13
2023-02-10T17:53:49.167Z,16.30
2023-02-10T17:56:17.623Z,15.52
2023-02-10T17:58:44.407Z,17.13
2023-02-10T18:01:37.660Z,20.40
2023-02-10T18:04:04.598Z,17.40
2023-02-10T18:06:31.256Z,17.38
2023-02-10T18:08:59.134Z,19.70
2023-02-10T18:11:31.839Z,14.88
2023-02-10T18:13:59.997Z,19.95
2023-02-10T18:16:26.824Z,13.90
2023-02-10T18:18:53.718Z,17.30
2023-02-10T18:21:22.451Z,15.75
2023-02-10T18:23:49.872Z,15.88
2023-02-10T18:26:17.765Z,17.00
2023-02-10T18:28:44.612Z,17.55
2023-02-10T18:31:15.012Z,19.27
2023-02-10T18:33:44.907Z,21.13
2023-02-10T18:36:15.230Z,17.02
2023-02-10T18:38:41.853Z,18.00
2023-02-10T18:41:08.718Z,22.25
2023-02-10T18:43:35.360Z,15.02
2023-02-10T18:46:02.083Z,23.15
2023-02-10T18:48:30.820Z,18.83
2023-02-10T18:50:57.557Z,19.58
2023-02-10T18:53:24.153Z,18.80
2023-02-10T18:55:53.039Z,15.73
2023-02-10T18:58:19.813Z,19.88
2023-02-10T19:00:47.897Z,17.67
2023-02-10T19:03:14.733Z,16.30
2023-02-10T19:05:41.332Z,18.05
2023-02-10T19:08:08.282Z,21.02
2023-02-10T19:13:01.977Z,17.30
2023-02-10T19:15:28.723Z,17.05
2023-02-10T19:17:55.287Z,18.02
2023-02-10T19:20:21.795Z,25.33
2023-02-10T19:22:49.454Z,20.52
2023-02-10T19:25:16.295Z,17.77
2023-02-10T19:27:42.917Z,22.75
2023-02-10T19:30:10.209Z,18.20
2023-02-10T19:32:36.829Z,22.85
2023-02-10T19:35:03.542Z,21.90
2023-02-10T19:37:30.110Z,24.30
2023-02-10T19:39:56.795Z,20.83
2023-02-10T19:42:23.661Z,24.02
2023-02-10T19:44:50.429Z,19.02
2023-02-10T19:47:16.992Z,22.38
2023-02-10T19:49:43.575Z,17.65
2023-02-10T19:52:10.163Z,22.13
2023-02-10T19:54:36.730Z,27.85
2023-02-10T19:57:03.519Z,20.98
2023-02-10T19:59:30.082Z,19.83
2023-02-10T20:01:56.641Z,21.35
2023-02-10T20:04:23.635Z,26.10
2023-02-10T20:06:50.281Z,25.20
2023-02-10T20:09:18.363Z,28.40
2023-02-10T20:11:45.537Z,32.53
2023-02-10T20:14:12.237Z,27.58
2023-02-10T20:16:41.029Z,29.60
2023-02-10T20:19:08.491Z,23.95
2023-02-10T20:21:35.132Z,32.83
2023-02-10T20:24:01.813Z,29.65
2023-02-10T20:26:28.448Z,27.70
2023-02-10T20:28:55.179Z,28.85
2023-02-10T20:31:21.984Z,28.08
2023-02-10T20:33:48.829Z,27.58
2023-02-10T20:36:17.246Z,25.33
2023-02-10T20:38:46.451Z,29.10
2023-02-10T20:41:17.322Z,29.35
2023-02-10T20:43:47.088Z,30.13
2023-02-10T20:46:16.039Z,28.02
2023-02-10T20:48:44.695Z,25.88
2023-02-10T20:51:11.475Z,32.40
2023-02-10T20:53:38.609Z,27.65
2023-02-10T20:56:06.286Z,35.50
2023-02-10T20:58:32.926Z,27.95
2023-02-10T21:01:01.810Z,29.88
2023-02-10T21:03:29.723Z,26.38
2023-02-10T21:06:10.715Z,29.70
2023-02-10T21:08:38.360Z,25.70
2023-02-10T21:11:05.548Z,32.28
2023-02-10T21:13:32.579Z,29.80
2023-02-10T21:18:26.554Z,30.40
2023-02-10T21:21:01.250Z,30.05
2023-02-10T21:23:29.189Z,31.10
2023-02-10T21:25:56.634Z,36.05
2023-02-10T21:28:23.727Z,27.88
2023-02-10T21:30:50.530Z,33.47
2023-02-10T21:33:18.446Z,34.95
2023-02-10T21:35:47.151Z,32.08
2023-02-10T21:38:15.447Z,31.13
2023-02-10T21:40:42.483Z,31.48
2023-02-10T21:45:35.723Z,29.15
2023-02-10T21:48:02.436Z,30.25
2023-02-10T21:50:29.064Z,28.70
2023-02-10T21:52:55.685Z,43.30
2023-02-10T21:55:22.512Z,33.20
2023-02-10T21:57:49.116Z,37.65
2023-02-10T22:00:15.905Z,28.02
2023-02-10T22:02:43.245Z,26.98
2023-02-10T22:05:10.067Z,34.58
2023-02-10T22:07:38.470Z,37.35
2023-02-10T22:10:05.926Z,37.72
2023-02-10T22:12:34.791Z,38.55
2023-02-10T22:15:01.619Z,33.85
2023-02-10T22:17:28.240Z,30.88
2023-02-10T22:19:54.816Z,34.80
2023-02-10T22:22:21.288Z,34.47
2023-02-10T22:24:47.846Z,30.90
2023-02-10T22:27:14.506Z,38.25
2023-02-10T22:29:41.107Z,42.90
2023-02-10T22:32:07.628Z,30.17
2023-02-10T22:34:34.205Z,35.08
2023-02-10T22:37:01.262Z,32.30
2023-02-10T22:41:54.627Z,36.70
2023-02-10T22:44:21.186Z,30.83
2023-02-10T22:46:47.777Z,30.05
2023-02-10T22:49:14.429Z,34.83
2023-02-10T22:51:42.731Z,31.50
2023-02-10T22:54:12.588Z,35.97
2023-02-10T22:56:40.713Z,40.83
2023-02-10T22:59:07.961Z,39.28
2023-02-10T23:01:40.491Z,37.65
2023-02-10T23:04:09.147Z,35.28
2023-02-10T23:06:36.499Z,44.38
2023-02-10T23:09:03.353Z,30.90
2023-02-10T23:11:33.509Z,33.78
2023-02-10T23:14:00.575Z,29.45
2023-02-10T23:18:55.197Z,28.85
2023-02-10T23:21:23.835Z,43.33
2023-02-10T23:23:51.663Z,43.03
2023-02-10T23:26:30.754Z,32.72
2023-02-10T23:28:59.868Z,29.13
2023-02-10T23:31:27.515Z,35.40
2023-02-10T23:33:55.037Z,44.20
2023-02-10T23:36:21.947Z,41.72
2023-02-10T23:41:17.241Z,42.15
2023-02-10T23:43:43.766Z,31.83
2023-02-10T23:46:10.834Z,45.90
2023-02-10T23:51:14.369Z,40.35
2023-02-10T23:53:41.287Z,32.42
2023-02-10T23:56:08.966Z,37.03
2023-02-10T23:58:35.825Z,33.75
